createdAt,value
2018-01-19T00:00:00.880Z,925.7
2018-01-19T00:01:04.326Z,925.7
2018-01-19T00:02:07.586Z,925.7
2018-01-19T00:03:11.034Z,925.7
2018-01-19T00:04:14.491Z,925.7
2018-01-19T00:05:17.974Z,925.7
2018-01-19T00:06:22.854Z,925.7
2018-01-19T00:07:26.932Z,925.7
2018-01-19T00:08:30.405Z,925.6
2018-01-19T00:09:36.274Z,925.6
2018-01-19T00:10:43.868Z,925.6
2018-01-19T00:11:47.461Z,925.6
2018-01-19T00:12:54.254Z,925.6
2018-01-19T00:13:57.416Z,921.7
2018-01-19T00:15:00.950Z,925.6
2018-01-19T00:16:04.293Z,925.5
2018-01-19T00:17:08.341Z,925.5
2018-01-19T00:18:12.306Z,925.4
2018-01-19T00:19:15.599Z,925.4
2018-01-19T00:20:19.749Z,925.3
2018-01-19T00:21:26.619Z,925.3
2018-01-19T00:22:30.658Z,925.2
2018-01-19T00:23:34.099Z,925.2
2018-01-19T00:24:38.486Z,925.2
2018-01-19T00:25:41.888Z,925.2
2018-01-19T00:26:46.511Z,925.3
2018-01-19T00:27:50.043Z,925.3
2018-01-19T00:28:53.930Z,925.2
2018-01-19T00:29:58.413Z,925.3
2018-01-19T00:31:01.817Z,925.3
2018-01-19T00:32:09.548Z,925.3
2018-01-19T00:33:13.022Z,925.3
2018-01-19T00:34:17.433Z,925.2
2018-01-19T00:35:20.931Z,925.3
2018-01-19T00:36:24.916Z,925.4
2018-01-19T00:37:29.632Z,925.3
2018-01-19T00:38:33.096Z,920.3
2018-01-19T00:39:37.971Z,925.2
2018-01-19T00:40:41.766Z,925.3
2018-01-19T00:41:45.088Z,925.4
2018-01-19T00:43:24.806Z,925.3
2018-01-19T00:44:28.285Z,925.4
2018-01-19T00:45:31.753Z,925.5
2018-01-19T00:46:35.027Z,925.4
2018-01-19T00:47:38.402Z,925.5
2018-01-19T00:48:42.813Z,925.5
2018-01-19T00:49:46.949Z,925.5
2018-01-19T00:50:51.058Z,925.4
2018-01-19T00:51:54.462Z,925.4
2018-01-19T00:52:57.829Z,925.4
2018-01-19T00:54:06.940Z,925.4
2018-01-19T00:55:10.286Z,925.4
2018-01-19T00:56:13.788Z,925.4
2018-01-19T00:57:18.075Z,925.5
2018-01-19T00:58:21.849Z,925.5
2018-01-19T00:59:25.390Z,925.4
2018-01-19T01:00:29.383Z,925.3
2018-01-19T01:01:34.910Z,925.3
2018-01-19T01:02:38.946Z,925.3
2018-01-19T01:03:44.546Z,925.4
2018-01-19T01:04:51.818Z,925.6
2018-01-19T01:05:55.141Z,925.5
2018-01-19T01:06:58.433Z,925.5
2018-01-19T01:08:01.763Z,925.6
2018-01-19T01:09:05.789Z,925.7
2018-01-19T01:10:09.871Z,925.6
2018-01-19T01:11:15.293Z,925.7
2018-01-19T01:12:19.955Z,925.8
2018-01-19T01:13:23.312Z,925.7
2018-01-19T01:14:26.704Z,925.8
2018-01-19T01:15:33.775Z,925.7
2018-01-19T01:16:39.304Z,925.7
2018-01-19T01:17:42.556Z,925.7
2018-01-19T01:18:46.752Z,925.7
2018-01-19T01:19:50.373Z,925.6
2018-01-19T01:20:55.855Z,925.6
2018-01-19T01:21:59.596Z,925.6
2018-01-19T01:23:04.381Z,921.5
2018-01-19T01:24:08.205Z,925.6
2018-01-19T01:25:11.827Z,925.6
2018-01-19T01:26:18.683Z,925.6
2018-01-19T01:27:23.244Z,925.6
2018-01-19T01:28:26.725Z,925.6
2018-01-19T01:29:30.054Z,925.5
2018-01-19T01:30:33.586Z,925.5
2018-01-19T01:31:39.823Z,925.6
2018-01-19T01:32:43.278Z,925.6
2018-01-19T01:33:46.736Z,925.7
2018-01-19T01:34:50.768Z,925.7
2018-01-19T01:35:54.234Z,925.7
2018-01-19T01:37:02.632Z,925.7
2018-01-19T01:38:06.936Z,925.7
2018-01-19T01:39:11.035Z,925.7
2018-01-19T01:40:14.400Z,925.8
2018-01-19T01:41:18.576Z,925.7
2018-01-19T01:42:22.002Z,925.6
2018-01-19T01:43:27.658Z,925.6
2018-01-19T01:44:30.981Z,925.5
2018-01-19T01:45:36.553Z,925.5
2018-01-19T01:46:41.027Z,925.6
2018-01-19T01:47:50.248Z,925.5
2018-01-19T01:48:54.390Z,925.6
2018-01-19T01:49:57.827Z,925.6
2018-01-19T01:51:03.307Z,925.5
2018-01-19T01:52:16.795Z,925.7
2018-01-19T01:53:20.932Z,925.7
2018-01-19T01:54:24.963Z,925.7
2018-01-19T01:55:28.678Z,925.7
2018-01-19T01:56:32.248Z,925.6
2018-01-19T01:57:35.631Z,925.7
2018-01-19T01:58:45.285Z,925.7
2018-01-19T01:59:49.933Z,925.6
2018-01-19T02:00:53.326Z,925.6
2018-01-19T02:01:56.702Z,925.5
2018-01-19T02:03:00.696Z,925.4
2018-01-19T02:04:04.152Z,925.4
2018-01-19T02:05:07.909Z,925.4
2018-01-19T02:06:12.005Z,925.3
2018-01-19T02:07:16.541Z,925.3
2018-01-19T02:08:20.008Z,925.2
2018-01-19T02:09:59.585Z,925.2
2018-01-19T02:11:03.042Z,925.3
2018-01-19T02:12:07.245Z,925.3
2018-01-19T02:13:11.227Z,925.3
2018-01-19T02:14:16.314Z,925.3
2018-01-19T02:15:20.318Z,925.4
2018-01-19T02:16:24.279Z,921.3
2018-01-19T02:17:28.457Z,921.1
2018-01-19T02:18:33.443Z,925.4
2018-01-19T02:19:37.031Z,925.4
2018-01-19T02:20:44.813Z,925.4
2018-01-19T02:21:49.130Z,925.4
2018-01-19T02:22:52.539Z,925.4
2018-01-19T02:23:56.881Z,925.4
2018-01-19T02:25:00.645Z,925.4
2018-01-19T02:26:04.099Z,925.4
2018-01-19T02:27:10.446Z,925.3
2018-01-19T02:28:13.840Z,925.3
2018-01-19T02:29:17.318Z,925.3
2018-01-19T02:30:20.826Z,925.3
2018-01-19T02:31:28.029Z,925.2
2018-01-19T02:32:32.526Z,925.3
2018-01-19T02:33:36.616Z,925.3
2018-01-19T02:34:40.046Z,925.3
2018-01-19T02:35:43.126Z,925.2
2018-01-19T02:36:46.483Z,925.5
2018-01-19T02:37:49.917Z,925.2
2018-01-19T02:38:54.121Z,925.2
2018-01-19T02:39:57.441Z,925.2
2018-01-19T02:41:01.004Z,925.2
2018-01-19T02:42:10.200Z,925.3
2018-01-19T02:43:13.552Z,925.2
2018-01-19T02:44:18.232Z,925.2
2018-01-19T02:45:22.707Z,925.2
2018-01-19T02:46:26.367Z,925.1
2018-01-19T02:47:29.846Z,925.1
2018-01-19T02:48:34.673Z,921.2
2018-01-19T02:49:39.667Z,925
2018-01-19T02:50:43.299Z,925
2018-01-19T02:51:46.796Z,925
2018-01-19T02:52:55.252Z,925
2018-01-19T02:54:00.470Z,925
2018-01-19T02:55:05.011Z,925
2018-01-19T02:56:09.160Z,925
2018-01-19T02:57:13.906Z,925
2018-01-19T02:58:18.801Z,925.1
2018-01-19T02:59:22.869Z,925.2
2018-01-19T03:00:26.901Z,925.2
2018-01-19T03:01:31.609Z,925.2
2018-01-19T03:02:36.176Z,925.2
2018-01-19T03:03:46.135Z,925.1
2018-01-19T03:04:50.094Z,925.1
2018-01-19T03:05:53.712Z,925.3
2018-01-19T03:06:57.968Z,925.2
2018-01-19T03:08:01.340Z,925.2
2018-01-19T03:09:05.693Z,925.2
2018-01-19T03:10:09.081Z,925.2
2018-01-19T03:11:12.556Z,925.1
2018-01-19T03:12:15.956Z,925.1
2018-01-19T03:13:19.276Z,925.1
2018-01-19T03:14:26.852Z,925.1
2018-01-19T03:15:30.969Z,925.1
2018-01-19T03:16:34.972Z,925
2018-01-19T03:17:38.408Z,925.1
2018-01-19T03:18:42.388Z,925.1
2018-01-19T03:19:45.793Z,925.1
2018-01-19T03:20:49.679Z,925.2
2018-01-19T03:21:54.531Z,925.1
2018-01-19T03:22:59.286Z,925.3
2018-01-19T03:24:02.707Z,925.3
2018-01-19T03:25:09.527Z,925.3
2018-01-19T03:26:14.521Z,925.3
2018-01-19T03:27:20.042Z,925.2
2018-01-19T03:28:24.787Z,925.3
2018-01-19T03:29:28.509Z,925.3
2018-01-19T03:30:34.994Z,925.4
2018-01-19T03:31:40.454Z,925.4
2018-01-19T03:32:44.031Z,925.4
2018-01-19T03:33:48.003Z,925.4
2018-01-19T03:34:51.428Z,925.3
2018-01-19T03:36:00.594Z,925.3
2018-01-19T03:37:03.681Z,925.2
2018-01-19T03:38:07.143Z,925.2
2018-01-19T03:39:12.654Z,925.3
2018-01-19T03:40:16.052Z,925.3
2018-01-19T03:41:19.530Z,925.4
2018-01-19T03:42:22.997Z,925.3
2018-01-19T03:43:26.323Z,925.3
2018-01-19T03:44:31.809Z,925.3
2018-01-19T03:45:35.266Z,925.3
2018-01-19T03:46:42.144Z,925.5
2018-01-19T03:47:46.035Z,925.4
2018-01-19T03:48:51.307Z,925.4
2018-01-19T03:49:57.488Z,925.4
2018-01-19T03:51:01.745Z,925.4
2018-01-19T03:52:05.119Z,925.2
2018-01-19T03:53:10.905Z,925.4
2018-01-19T03:54:14.351Z,925.2
2018-01-19T03:55:17.675Z,925.3
2018-01-19T03:56:21.707Z,925.3
2018-01-19T03:57:30.945Z,925.3
2018-01-19T03:58:37.036Z,925.3
2018-01-19T03:59:40.418Z,925.2
2018-01-19T04:00:46.873Z,925.3
2018-01-19T04:01:52.613Z,925.2
2018-01-19T04:02:56.065Z,925.3
2018-01-19T04:04:03.337Z,925.4
2018-01-19T04:05:08.465Z,925.4
2018-01-19T04:06:11.790Z,925.4
2018-01-19T04:07:15.056Z,925.3
2018-01-19T04:08:21.878Z,925.3
2018-01-19T04:09:25.293Z,925.2
2018-01-19T04:10:28.784Z,925.1
2018-01-19T04:11:32.574Z,924.8
2018-01-19T04:12:38.502Z,925.2
2018-01-19T04:13:42.210Z,925.3
2018-01-19T04:14:45.535Z,925.2
2018-01-19T04:15:48.904Z,925.2
2018-01-19T04:16:52.411Z,925.1
2018-01-19T04:17:57.935Z,925.3
2018-01-19T04:19:08.925Z,925.1
2018-01-19T04:20:12.909Z,925.3
2018-01-19T04:21:16.887Z,925.4
2018-01-19T04:22:20.698Z,925.3
2018-01-19T04:23:25.255Z,925.3
2018-01-19T04:24:28.589Z,925.4
2018-01-19T04:25:34.095Z,925.4
2018-01-19T04:26:37.595Z,925.3
2018-01-19T04:27:40.880Z,925.5
2018-01-19T04:28:44.333Z,925.6
2018-01-19T04:29:53.608Z,925.5
2018-01-19T04:30:58.223Z,925.4
2018-01-19T04:32:01.797Z,925.5
2018-01-19T04:33:06.160Z,925.5
2018-01-19T04:34:09.480Z,925.7
2018-01-19T04:35:15.694Z,925.5
2018-01-19T04:36:19.132Z,925.5
2018-01-19T04:37:24.375Z,925.6
2018-01-19T04:38:28.068Z,925.8
2018-01-19T04:39:32.226Z,925.7
2018-01-19T04:40:40.477Z,925.3
2018-01-19T04:41:44.509Z,925.7
2018-01-19T04:42:48.456Z,925.7
2018-01-19T04:43:51.923Z,925.9
2018-01-19T04:44:55.333Z,925.8
2018-01-19T04:46:00.809Z,925.8
2018-01-19T04:47:04.225Z,925.7
2018-01-19T04:48:08.177Z,925.7
2018-01-19T04:49:11.800Z,925.7
2018-01-19T04:50:18.588Z,925.8
2018-01-19T04:51:57.317Z,925.9
2018-01-19T04:53:00.697Z,926
2018-01-19T04:54:04.217Z,925.9
2018-01-19T04:55:09.585Z,925.9
2018-01-19T04:56:15.706Z,925.9
2018-01-19T04:57:19.154Z,926
2018-01-19T04:58:23.670Z,926
2018-01-19T04:59:27.828Z,926
2018-01-19T05:00:32.285Z,926
2018-01-19T05:01:38.649Z,925.9
2018-01-19T05:02:49.289Z,926
2018-01-19T05:03:53.289Z,922.3
2018-01-19T05:04:57.407Z,925.9
2018-01-19T05:06:00.808Z,926
2018-01-19T05:07:07.125Z,926.1
2018-01-19T05:08:13.524Z,926.1
2018-01-19T05:09:16.966Z,926.1
2018-01-19T05:10:20.340Z,926
2018-01-19T05:11:23.723Z,926
2018-01-19T05:12:29.144Z,926.1
2018-01-19T05:13:38.735Z,925.9
2018-01-19T05:14:42.108Z,926
2018-01-19T05:15:46.191Z,926.1
2018-01-19T05:16:52.340Z,926.2
2018-01-19T05:17:55.769Z,926.3
2018-01-19T05:18:59.085Z,926.3
2018-01-19T05:20:04.690Z,926.2
2018-01-19T05:21:10.388Z,926.2
2018-01-19T05:22:13.826Z,926.4
2018-01-19T05:23:17.313Z,926.3
2018-01-19T05:24:26.281Z,926.5
2018-01-19T05:25:31.246Z,926.2
2018-01-19T05:26:35.476Z,926.3
2018-01-19T05:27:38.766Z,926.3
2018-01-19T05:28:46.335Z,926.3
2018-01-19T05:29:49.643Z,926.3
2018-01-19T05:30:52.908Z,926.3
2018-01-19T05:31:58.710Z,926.3
2018-01-19T05:33:02.233Z,926.3
2018-01-19T05:34:06.339Z,926.3
2018-01-19T05:35:13.805Z,926.2
2018-01-19T05:36:17.244Z,926.4
2018-01-19T05:37:30.722Z,926.2
2018-01-19T05:38:34.128Z,926.2
2018-01-19T05:39:38.262Z,926.3
2018-01-19T05:40:41.703Z,926.3
2018-01-19T05:41:45.222Z,926.2
2018-01-19T05:42:48.665Z,926.2
2018-01-19T05:43:52.030Z,926.1
2018-01-19T05:44:55.460Z,926.1
2018-01-19T05:46:02.566Z,926.1
2018-01-19T05:47:05.943Z,926.1
2018-01-19T05:48:09.901Z,926.1
2018-01-19T05:49:13.545Z,926.1
2018-01-19T05:50:16.663Z,926.1
2018-01-19T05:51:20.026Z,926.2
2018-01-19T05:52:24.108Z,926
2018-01-19T05:53:27.329Z,926
2018-01-19T05:54:30.833Z,926.1
2018-01-19T05:55:34.946Z,926.1
2018-01-19T05:56:41.511Z,926.2
2018-01-19T05:57:44.886Z,926.3
2018-01-19T05:58:48.261Z,926.5
2018-01-19T05:59:51.505Z,926.6
2018-01-19T06:00:54.885Z,926.9
2018-01-19T06:01:58.958Z,926.7
2018-01-19T06:03:02.497Z,926.8
2018-01-19T06:04:05.903Z,926.7
2018-01-19T06:05:09.296Z,926.8
2018-01-19T06:06:12.580Z,926.9
2018-01-19T06:07:19.526Z,926.9
2018-01-19T06:08:23.296Z,927
2018-01-19T06:09:29.909Z,927.1
2018-01-19T06:10:33.334Z,927.1
2018-01-19T06:11:38.949Z,927.1
2018-01-19T06:12:44.562Z,927.2
2018-01-19T06:13:48.175Z,927.2
2018-01-19T06:14:52.236Z,927.3
2018-01-19T06:15:55.789Z,927.2
2018-01-19T06:16:59.239Z,927.4
2018-01-19T06:18:08.503Z,927.4
2018-01-19T06:19:13.961Z,927.4
2018-01-19T06:20:18.426Z,927.4
2018-01-19T06:21:22.377Z,927.4
2018-01-19T06:22:25.792Z,927.5
2018-01-19T06:23:29.881Z,927.4
2018-01-19T06:24:35.967Z,927.4
2018-01-19T06:25:40.133Z,927.5
2018-01-19T06:26:43.931Z,927.5
2018-01-19T06:27:47.416Z,925.1
2018-01-19T06:28:54.467Z,927.7
2018-01-19T06:29:58.221Z,927.7
2018-01-19T06:31:01.705Z,927.7
2018-01-19T06:32:05.772Z,927.7
2018-01-19T06:33:09.776Z,927.8
2018-01-19T06:34:13.659Z,927.8
2018-01-19T06:35:17.244Z,927.7
2018-01-19T06:36:20.565Z,927.8
2018-01-19T06:37:24.022Z,927.9
2018-01-19T06:38:27.371Z,928
2018-01-19T06:39:34.291Z,928
2018-01-19T06:40:37.762Z,928.1
2018-01-19T06:41:41.968Z,928
2018-01-19T06:42:45.436Z,928
2018-01-19T06:43:48.854Z,928
2018-01-19T06:44:52.011Z,928.1
2018-01-19T06:45:57.799Z,928.2
2018-01-19T06:47:01.618Z,928.2
2018-01-19T06:48:05.084Z,928.2
2018-01-19T06:49:08.298Z,928.2
2018-01-19T06:50:15.878Z,928.3
2018-01-19T06:51:20.850Z,928.3
2018-01-19T06:52:25.633Z,928.4
2018-01-19T06:53:29.541Z,928.3
2018-01-19T06:54:32.888Z,928.4
2018-01-19T06:55:37.486Z,928.5
2018-01-19T06:56:40.922Z,928.3
2018-01-19T06:57:44.358Z,928.5
2018-01-19T06:58:47.497Z,928.6
2018-01-19T06:59:51.008Z,928.8
2018-01-19T07:00:58.114Z,928.8
2018-01-19T07:02:01.682Z,928.7
2018-01-19T07:03:06.032Z,928.8
2018-01-19T07:04:10.040Z,928.8
2018-01-19T07:05:13.535Z,928.9
2018-01-19T07:06:16.957Z,928.9
2018-01-19T07:07:22.254Z,928.9
2018-01-19T07:08:25.615Z,928.9
2018-01-19T07:09:29.057Z,929
2018-01-19T07:10:32.561Z,928.9
2018-01-19T07:12:11.478Z,924.7
2018-01-19T07:13:15.476Z,929.1
2018-01-19T07:14:22.193Z,928.9
2018-01-19T07:15:27.160Z,929.1
2018-01-19T07:16:30.671Z,929.2
2018-01-19T07:17:34.374Z,929.1
2018-01-19T07:18:38.008Z,929.2
2018-01-19T07:19:41.252Z,929.2
2018-01-19T07:20:45.846Z,929.2
2018-01-19T07:21:49.331Z,929.2
2018-01-19T07:22:57.119Z,929.2
2018-01-19T07:24:00.496Z,929.2
2018-01-19T07:25:03.973Z,929.2
2018-01-19T07:26:07.380Z,929.3
2018-01-19T07:27:10.803Z,929.3
2018-01-19T07:28:14.899Z,929.3
2018-01-19T07:29:18.338Z,929.3
2018-01-19T07:30:21.761Z,929.4
2018-01-19T07:31:25.867Z,929.4
2018-01-19T07:32:29.384Z,929.4
2018-01-19T07:33:36.950Z,929.4
2018-01-19T07:34:40.408Z,929.5
2018-01-19T07:35:43.818Z,929.5
2018-01-19T07:36:47.368Z,929.5
2018-01-19T07:37:50.983Z,929.5
2018-01-19T07:38:54.981Z,929.5
2018-01-19T07:39:58.484Z,929.6
2018-01-19T07:41:01.880Z,929.5
2018-01-19T07:42:05.446Z,929.6
2018-01-19T07:43:13.897Z,929.4
2018-01-19T07:44:21.581Z,929.5
2018-01-19T07:45:25.027Z,929.5
2018-01-19T07:46:28.479Z,929.5
2018-01-19T07:47:32.711Z,929.5
2018-01-19T07:48:36.356Z,929.4
2018-01-19T07:49:39.840Z,929.5
2018-01-19T07:50:43.888Z,929.5
2018-01-19T07:51:47.344Z,929.4
2018-01-19T07:52:50.872Z,929.4
2018-01-19T07:53:55.333Z,929.5
2018-01-19T07:55:02.326Z,929.5
2018-01-19T07:56:05.896Z,929.6
2018-01-19T07:57:09.430Z,929.6
2018-01-19T07:58:12.912Z,929.6
2018-01-19T07:59:16.533Z,929.7
2018-01-19T08:00:20.131Z,929.7
2018-01-19T08:01:23.638Z,929.6
2018-01-19T08:02:27.775Z,929.6
2018-01-19T08:03:31.156Z,929.5
2018-01-19T08:04:35.237Z,929.5
2018-01-19T08:05:43.230Z,929.7
2018-01-19T08:06:47.511Z,929.7
2018-01-19T08:07:50.843Z,929.7
2018-01-19T08:08:54.238Z,929.9
2018-01-19T08:09:57.548Z,929.7
2018-01-19T08:11:01.627Z,929.7
2018-01-19T08:12:08.481Z,929.8
2018-01-19T08:13:12.047Z,929.9
2018-01-19T08:14:15.667Z,929.8
2018-01-19T08:15:19.044Z,929.9
2018-01-19T08:16:26.047Z,930
2018-01-19T08:17:30.338Z,930
2018-01-19T08:18:33.598Z,930
2018-01-19T08:19:37.640Z,925.7
2018-01-19T08:20:41.133Z,930
2018-01-19T08:21:44.599Z,929.9
2018-01-19T08:22:47.984Z,930
2018-01-19T08:23:51.498Z,930
2018-01-19T08:24:54.810Z,930
2018-01-19T08:25:58.442Z,930
2018-01-19T08:27:06.216Z,930.1
2018-01-19T08:28:09.838Z,930.1
2018-01-19T08:29:13.302Z,930.1
2018-01-19T08:30:16.777Z,930.1
2018-01-19T08:31:20.537Z,930.2
2018-01-19T08:32:24.120Z,930.2
2018-01-19T08:33:27.552Z,930.1
2018-01-19T08:34:30.939Z,930.1
2018-01-19T08:35:34.170Z,930.1
2018-01-19T08:36:37.842Z,930.1
2018-01-19T08:37:45.791Z,930.1
2018-01-19T08:38:49.309Z,930.1
2018-01-19T08:39:52.822Z,925.8
2018-01-19T08:40:56.297Z,930.2
2018-01-19T08:41:59.559Z,930.2
2018-01-19T08:43:03.034Z,930.3
2018-01-19T08:44:06.704Z,930.4
2018-01-19T08:45:10.175Z,930.4
2018-01-19T08:46:13.724Z,930.3
2018-01-19T08:47:17.292Z,930.5
2018-01-19T08:48:24.277Z,930.5
2018-01-19T08:49:27.829Z,930.5
2018-01-19T08:50:31.844Z,930.5
2018-01-19T08:51:35.287Z,930.5
2018-01-19T08:52:38.671Z,930.5
2018-01-19T08:53:42.093Z,930.7
2018-01-19T08:54:45.611Z,926.2
2018-01-19T08:55:49.119Z,930.6
2018-01-19T08:56:52.710Z,930.5
2018-01-19T08:57:56.198Z,930.5
2018-01-19T08:59:03.145Z,930.6
2018-01-19T09:00:06.579Z,930.6
2018-01-19T09:01:10.715Z,930.5
2018-01-19T09:02:14.218Z,930.5
2018-01-19T09:03:18.254Z,930.4
2018-01-19T09:04:21.684Z,930.4
2018-01-19T09:05:25.131Z,930.5
2018-01-19T09:06:28.758Z,930.6
2018-01-19T09:07:32.256Z,930.5
2018-01-19T09:08:36.802Z,930.5
2018-01-19T09:09:43.756Z,930.5
2018-01-19T09:10:47.933Z,930.5
2018-01-19T09:11:51.407Z,930.6
2018-01-19T09:12:55.109Z,930.7
2018-01-19T09:13:59.923Z,930.6
2018-01-19T09:15:03.960Z,926.1
2018-01-19T09:16:07.495Z,930.6
2018-01-19T09:17:10.836Z,930.6
2018-01-19T09:18:14.408Z,930.6
2018-01-19T09:19:17.774Z,930.6
2018-01-19T09:20:26.096Z,930.6
2018-01-19T09:21:29.178Z,930.7
2018-01-19T09:22:32.788Z,930.6
2018-01-19T09:23:37.386Z,930.7
2018-01-19T09:24:40.737Z,930.7
2018-01-19T09:25:44.725Z,930.6
2018-01-19T09:26:48.143Z,930.7
2018-01-19T09:27:52.655Z,930.7
2018-01-19T09:28:56.086Z,930.7
2018-01-19T09:30:02.020Z,930.7
2018-01-19T09:31:42.172Z,930.8
2018-01-19T09:32:45.440Z,930.8
2018-01-19T09:33:50.313Z,930.8
2018-01-19T09:34:54.353Z,930.8
2018-01-19T09:35:58.389Z,930.9
2018-01-19T09:37:01.926Z,930.9
2018-01-19T09:38:05.317Z,930.9
2018-01-19T09:39:08.744Z,930.9
2018-01-19T09:40:12.272Z,930.9
2018-01-19T09:41:15.613Z,931
2018-01-19T09:42:22.574Z,930.8
2018-01-19T09:43:26.520Z,930.9
2018-01-19T09:44:30.140Z,926.5
2018-01-19T09:45:33.522Z,930.9
2018-01-19T09:46:36.868Z,930.8
2018-01-19T09:47:40.177Z,930.9
2018-01-19T09:48:43.622Z,930.9
2018-01-19T09:49:47.177Z,931
2018-01-19T09:50:50.608Z,931
2018-01-19T09:51:56.161Z,931
2018-01-19T09:53:05.300Z,931
2018-01-19T09:54:08.700Z,931.2
2018-01-19T09:55:12.603Z,931
2018-01-19T09:56:18.047Z,931.1
2018-01-19T09:57:21.763Z,931.1
2018-01-19T09:58:25.227Z,931
2018-01-19T09:59:28.875Z,931.1
2018-01-19T10:00:32.820Z,931.2
2018-01-19T10:01:36.211Z,931.3
2018-01-19T10:02:39.381Z,931.3
2018-01-19T10:03:46.519Z,931.2
2018-01-19T10:04:49.999Z,931.4
2018-01-19T10:05:53.425Z,931.3
2018-01-19T10:06:56.944Z,931.3
2018-01-19T10:08:02.242Z,931.3
2018-01-19T10:09:07.122Z,931.3
2018-01-19T10:10:11.121Z,931.3
2018-01-19T10:11:15.765Z,931.3
2018-01-19T10:12:20.458Z,931.3
2018-01-19T10:13:25.018Z,931.3
2018-01-19T10:14:33.177Z,931.3
2018-01-19T10:15:36.597Z,931.3
2018-01-19T10:16:40.159Z,931.4
2018-01-19T10:17:44.608Z,931.4
2018-01-19T10:18:47.926Z,931.3
2018-01-19T10:19:52.661Z,931.3
2018-01-19T10:20:58.008Z,931.3
2018-01-19T10:22:01.386Z,931.4
2018-01-19T10:23:06.804Z,931.3
2018-01-19T10:24:11.601Z,931.3
2018-01-19T10:25:52.710Z,931.3
2018-01-19T10:26:57.180Z,931.3
2018-01-19T10:28:00.563Z,931.3
2018-01-19T10:29:05.167Z,931.3
2018-01-19T10:30:10.047Z,931.3
2018-01-19T10:31:13.477Z,931.3
2018-01-19T10:32:17.588Z,931.2
2018-01-19T10:33:21.676Z,931.3
2018-01-19T10:34:24.987Z,931.3
2018-01-19T10:35:29.888Z,931.2
2018-01-19T10:36:38.006Z,931.3
2018-01-19T10:37:41.280Z,931.2
2018-01-19T10:38:44.691Z,931.2
2018-01-19T10:39:49.080Z,931.2
2018-01-19T10:40:52.427Z,931.2
2018-01-19T10:41:57.702Z,931.2
2018-01-19T10:43:04.105Z,931.1
2018-01-19T10:44:07.914Z,931.2
2018-01-19T10:45:12.110Z,931.1
2018-01-19T10:46:15.510Z,931.2
2018-01-19T10:47:55.497Z,931.2
2018-01-19T10:48:59.811Z,931.2
2018-01-19T10:50:03.303Z,931.3
2018-01-19T10:51:06.890Z,931.3
2018-01-19T10:52:11.013Z,931.2
2018-01-19T10:53:14.405Z,931.3
2018-01-19T10:54:19.655Z,931.2
2018-01-19T10:55:23.071Z,931.3
2018-01-19T10:56:26.520Z,931.2
2018-01-19T10:57:31.793Z,931.2
2018-01-19T10:58:39.091Z,931.3
2018-01-19T10:59:42.682Z,931.3
2018-01-19T11:00:47.133Z,931.3
2018-01-19T11:01:51.136Z,931.4
2018-01-19T11:02:54.387Z,931.4
2018-01-19T11:03:57.834Z,931.4
2018-01-19T11:05:03.097Z,931.4
2018-01-19T11:06:07.681Z,931.4
2018-01-19T11:07:12.014Z,931.4
2018-01-19T11:08:15.386Z,931.2
2018-01-19T11:09:22.396Z,931.3
2018-01-19T11:10:27.413Z,931.3
2018-01-19T11:11:30.802Z,931.3
2018-01-19T11:12:34.440Z,931.3
2018-01-19T11:13:37.825Z,931.3
2018-01-19T11:14:41.297Z,931.3
2018-01-19T11:15:44.724Z,931.3
2018-01-19T11:16:48.162Z,931.3
2018-01-19T11:17:51.491Z,931.4
2018-01-19T11:18:55.086Z,931.3
2018-01-19T11:20:03.582Z,931.2
2018-01-19T11:21:07.091Z,931.3
2018-01-19T11:22:10.518Z,931.3
2018-01-19T11:23:13.827Z,931.4
2018-01-19T11:24:17.849Z,931.4
2018-01-19T11:25:21.430Z,931.4
2018-01-19T11:26:24.856Z,931.3
2018-01-19T11:27:28.883Z,931.4
2018-01-19T11:29:05.216Z,931.3
2018-01-19T11:30:08.855Z,931.3
2018-01-19T11:31:48.199Z,931.3
2018-01-19T11:32:56.532Z,931.4
2018-01-19T11:34:09.467Z,931.4
2018-01-19T11:35:16.833Z,931.3
2018-01-19T11:36:20.452Z,931.3
2018-01-19T11:37:23.823Z,931.4
2018-01-19T11:38:27.254Z,931.4
2018-01-19T11:39:30.653Z,931.4
2018-01-19T11:40:34.617Z,931.3
2018-01-19T11:41:38.094Z,931.3
2018-01-19T11:42:45.258Z,931.3
2018-01-19T11:43:48.746Z,931.3
2018-01-19T11:44:52.162Z,931.2
2018-01-19T11:45:55.570Z,931.4
2018-01-19T11:46:58.919Z,931.3
2018-01-19T11:48:03.977Z,931.3
2018-01-19T11:49:07.913Z,931.2
2018-01-19T11:50:11.365Z,931.4
2018-01-19T11:51:14.796Z,931.4
2018-01-19T11:52:18.116Z,931.2
2018-01-19T11:53:25.201Z,931.3
2018-01-19T11:54:29.616Z,931.3
2018-01-19T11:55:35.230Z,931.3
2018-01-19T11:56:38.529Z,931.2
2018-01-19T11:57:42.597Z,931.2
2018-01-19T11:58:46.061Z,931.2
2018-01-19T11:59:49.449Z,931.2
2018-01-19T12:00:53.691Z,931.1
2018-01-19T12:01:57.182Z,931.1
2018-01-19T12:03:01.354Z,931.2
2018-01-19T12:04:08.624Z,931.1
2018-01-19T12:05:11.943Z,931.2
2018-01-19T12:06:17.853Z,931.2
2018-01-19T12:07:23.039Z,931.1
2018-01-19T12:08:27.192Z,931.2
2018-01-19T12:09:31.149Z,931.2
2018-01-19T12:10:39.027Z,931.3
2018-01-19T12:11:45.188Z,931.3
2018-01-19T12:12:49.718Z,931.3
2018-01-19T12:13:53.194Z,931.3
2018-01-19T12:15:03.654Z,931.2
2018-01-19T12:16:07.980Z,931.2
2018-01-19T12:17:12.878Z,931.2
2018-01-19T12:18:19.577Z,931.3
2018-01-19T12:19:25.290Z,931.3
2018-01-19T12:20:29.736Z,931.3
2018-01-19T12:21:34.097Z,931.3
2018-01-19T12:22:37.518Z,931.3
2018-01-19T12:23:41.039Z,931.3
2018-01-19T12:24:44.357Z,931.2
2018-01-19T12:25:53.637Z,931.1
2018-01-19T12:26:59.209Z,931.2
2018-01-19T12:28:05.236Z,931.1
2018-01-19T12:29:08.788Z,931
2018-01-19T12:30:14.861Z,931.1
2018-01-19T12:31:20.707Z,931
2018-01-19T12:32:27.929Z,931.1
2018-01-19T12:33:35.095Z,931.1
2018-01-19T12:34:38.578Z,930.9
2018-01-19T12:35:44.470Z,930.9
2018-01-19T12:36:56.743Z,930.9
2018-01-19T12:38:02.049Z,930.8
2018-01-19T12:39:05.702Z,930.9
2018-01-19T12:40:10.076Z,930.8
2018-01-19T12:41:15.366Z,930.8
2018-01-19T12:42:21.028Z,930.8
2018-01-19T12:43:24.916Z,930.8
2018-01-19T12:44:29.543Z,930.7
2018-01-19T12:45:33.992Z,930.7
2018-01-19T12:46:37.325Z,930.8
2018-01-19T12:47:47.137Z,930.8
2018-01-19T12:48:51.980Z,930.8
2018-01-19T12:49:55.745Z,930.9
2018-01-19T12:51:01.285Z,930.9
2018-01-19T12:52:06.372Z,930.7
2018-01-19T12:53:09.730Z,930.8
2018-01-19T12:54:14.729Z,930.8
2018-01-19T12:55:19.422Z,930.6
2018-01-19T12:56:23.445Z,930.9
2018-01-19T12:57:29.052Z,930.9
2018-01-19T12:58:37.176Z,930.9
2018-01-19T12:59:40.571Z,929.5
2018-01-19T13:00:45.053Z,930.9
2018-01-19T13:01:49.532Z,926
2018-01-19T13:02:53.466Z,930.9
2018-01-19T13:03:57.705Z,930.9
2018-01-19T13:05:04.822Z,930.9
2018-01-19T13:06:10.226Z,930.9
2018-01-19T13:07:15.116Z,930.9
2018-01-19T13:08:19.212Z,931
2018-01-19T13:09:26.292Z,931
2018-01-19T13:10:30.669Z,931
2018-01-19T13:11:34.152Z,931
2018-01-19T13:12:37.685Z,931
2018-01-19T13:13:41.098Z,931
2018-01-19T13:14:44.661Z,931
2018-01-19T13:15:48.267Z,931
2018-01-19T13:16:51.672Z,931
2018-01-19T13:17:55.236Z,931
2018-01-19T13:18:58.597Z,930.9
2018-01-19T13:20:06.213Z,930.9
2018-01-19T13:21:09.649Z,931
2018-01-19T13:22:13.119Z,931
2018-01-19T13:23:17.461Z,931.1
2018-01-19T13:24:21.066Z,930.9
2018-01-19T13:25:24.604Z,930.9
2018-01-19T13:26:27.954Z,930.9
2018-01-19T13:27:31.486Z,930.9
2018-01-19T13:28:34.914Z,930.9
2018-01-19T13:29:38.265Z,930.9
2018-01-19T13:30:45.148Z,930.7
2018-01-19T13:31:48.515Z,930.8
2018-01-19T13:32:52.507Z,930.8
2018-01-19T13:33:56.120Z,930.7
2018-01-19T13:34:59.597Z,930.8
2018-01-19T13:36:03.083Z,930.7
2018-01-19T13:37:06.429Z,930.8
2018-01-19T13:38:09.802Z,930.8
2018-01-19T13:39:13.393Z,930.7
2018-01-19T13:40:16.791Z,930.7
2018-01-19T13:41:23.819Z,930.8
2018-01-19T13:42:27.293Z,930.6
2018-01-19T13:43:30.841Z,930.7
2018-01-19T13:44:34.925Z,930.8
2018-01-19T13:45:38.341Z,930.7
2018-01-19T13:46:41.953Z,930.7
2018-01-19T13:47:45.436Z,930.7
2018-01-19T13:48:49.497Z,930.8
2018-01-19T13:49:52.907Z,930.7
2018-01-19T13:50:56.289Z,930.7
2018-01-19T13:52:03.404Z,930.8
2018-01-19T13:53:06.681Z,930.7
2018-01-19T13:54:10.689Z,930.7
2018-01-19T13:55:14.145Z,930.8
2018-01-19T13:56:18.225Z,930.7
2018-01-19T13:57:22.231Z,930.8
2018-01-19T13:58:25.593Z,930.8